createdAt,value
2023-05-19T00:02:26.120Z,12.30
2023-05-19T00:04:53.272Z,11.40
2023-05-19T00:07:24.464Z,13.90
2023-05-19T00:09:51.410Z,12.93
2023-05-19T00:12:18.254Z,12.32
2023-05-19T00:14:45.199Z,13.60
2023-05-19T00:17:12.162Z,14.55
2023-05-19T00:19:39.515Z,13.57
2023-05-19T00:22:06.268Z,18.42
2023-05-19T00:24:33.350Z,13.95
2023-05-19T00:27:00.061Z,13.25
2023-05-19T00:29:26.791Z,16.70
2023-05-19T00:31:53.573Z,16.40
2023-05-19T00:34:20.345Z,13.30
2023-05-19T00:36:46.971Z,13.43
2023-05-19T00:39:13.661Z,12.88
2023-05-19T00:41:40.440Z,16.10
2023-05-19T00:44:07.315Z,16.88
2023-05-19T00:46:34.183Z,13.25
2023-05-19T00:49:00.931Z,13.98
2023-05-19T00:51:29.684Z,19.10
2023-05-19T00:53:56.767Z,14.00
2023-05-19T00:56:23.686Z,15.98
2023-05-19T00:58:51.972Z,16.42
2023-05-19T01:01:19.096Z,16.38
2023-05-19T01:03:47.214Z,13.60
2023-05-19T01:06:15.112Z,19.08
2023-05-19T01:08:41.834Z,14.90
2023-05-19T01:11:08.658Z,19.92
2023-05-19T01:13:36.415Z,19.95
2023-05-19T01:16:11.363Z,16.45
2023-05-19T01:18:47.741Z,13.88
2023-05-19T01:21:51.236Z,12.50
2023-05-19T01:24:49.726Z,14.68
2023-05-19T01:27:48.167Z,11.05
2023-05-19T01:30:29.243Z,12.32
2023-05-19T01:33:00.694Z,9.63
2023-05-19T01:35:28.649Z,9.30
2023-05-19T01:37:57.957Z,8.15
2023-05-19T01:40:25.864Z,9.10
2023-05-19T01:42:57.849Z,8.60
2023-05-19T01:45:26.220Z,12.95
2023-05-19T01:47:57.033Z,7.22
2023-05-19T01:50:24.057Z,9.75
2023-05-19T01:52:51.485Z,7.35
2023-05-19T01:55:18.837Z,9.55
2023-05-19T01:58:13.262Z,7.25
2023-05-19T02:00:54.163Z,6.38
2023-05-19T02:03:38.645Z,6.55
2023-05-19T02:06:33.242Z,6.43
2023-05-19T02:09:45.025Z,5.25
2023-05-19T02:12:20.447Z,7.68
2023-05-19T02:14:57.752Z,5.20
2023-05-19T02:17:29.381Z,7.72
2023-05-19T02:19:56.863Z,6.07
2023-05-19T02:22:23.610Z,9.93
2023-05-19T02:24:51.948Z,8.88
2023-05-19T02:27:19.005Z,5.80
2023-05-19T02:29:46.087Z,6.05
2023-05-19T02:32:13.906Z,9.63
2023-05-19T02:34:42.306Z,9.05
2023-05-19T02:37:09.385Z,6.07
2023-05-19T02:39:36.129Z,8.45
2023-05-19T02:42:02.819Z,5.60
2023-05-19T02:44:29.573Z,6.50
2023-05-19T02:46:56.257Z,8.43
2023-05-19T02:49:23.120Z,7.03
2023-05-19T02:51:49.796Z,9.55
2023-05-19T02:54:16.494Z,8.43
2023-05-19T02:56:43.225Z,7.38
2023-05-19T02:59:09.881Z,7.00
2023-05-19T03:01:37.792Z,11.10
2023-05-19T03:04:04.738Z,6.63
2023-05-19T03:06:32.895Z,6.32
2023-05-19T03:08:59.659Z,5.40
2023-05-19T03:11:26.474Z,7.50
2023-05-19T03:13:53.154Z,6.95
2023-05-19T03:16:20.129Z,7.72
2023-05-19T03:18:46.932Z,9.50
2023-05-19T03:21:13.680Z,12.25
2023-05-19T03:23:40.325Z,6.25
2023-05-19T03:26:06.971Z,8.68
2023-05-19T03:28:33.688Z,7.72
2023-05-19T03:31:00.438Z,8.38
2023-05-19T03:33:29.889Z,6.78
2023-05-19T03:35:57.589Z,7.22
2023-05-19T03:38:24.291Z,6.45
2023-05-19T03:40:50.925Z,10.60
2023-05-19T03:43:17.616Z,5.88
2023-05-19T03:45:44.421Z,6.82
2023-05-19T03:48:11.194Z,9.35
2023-05-19T03:50:38.136Z,8.52
2023-05-19T03:53:04.926Z,8.85
2023-05-19T03:55:31.769Z,6.50
2023-05-19T03:57:58.402Z,6.95
2023-05-19T04:00:25.153Z,6.28
2023-05-19T04:02:52.045Z,5.70
2023-05-19T04:05:18.948Z,7.93
2023-05-19T04:07:46.829Z,7.50
2023-05-19T04:10:13.930Z,6.32
2023-05-19T04:12:40.725Z,6.50
2023-05-19T04:15:08.123Z,6.97
2023-05-19T04:17:35.098Z,8.32
2023-05-19T04:20:01.911Z,5.05
2023-05-19T04:22:28.566Z,5.45
2023-05-19T04:24:56.295Z,11.88
2023-05-19T04:27:23.109Z,6.95
2023-05-19T04:29:50.104Z,5.53
2023-05-19T04:32:19.744Z,6.82
2023-05-19T04:34:46.572Z,5.72
2023-05-19T04:37:14.272Z,9.38
2023-05-19T04:39:45.255Z,5.45
2023-05-19T04:42:12.416Z,5.50
2023-05-19T04:44:42.413Z,9.55
2023-05-19T04:47:09.310Z,6.47
2023-05-19T04:49:39.133Z,6.25
2023-05-19T04:52:11.931Z,5.97
2023-05-19T04:54:40.117Z,6.15
2023-05-19T04:57:06.935Z,5.13
2023-05-19T04:59:33.743Z,10.70
2023-05-19T05:02:00.682Z,6.93
2023-05-19T05:04:28.426Z,10.10
2023-05-19T05:06:55.098Z,5.90
2023-05-19T05:09:21.933Z,5.50
2023-05-19T05:11:48.842Z,9.93
2023-05-19T05:14:16.325Z,6.22
2023-05-19T05:16:43.735Z,9.18
2023-05-19T05:19:10.833Z,7.40
2023-05-19T05:21:37.819Z,7.95
2023-05-19T05:24:04.837Z,9.30
2023-05-19T05:26:33.951Z,5.47
2023-05-19T05:29:00.591Z,9.43
2023-05-19T05:31:27.330Z,10.75
2023-05-19T05:33:54.039Z,7.07
2023-05-19T05:36:20.758Z,8.57
2023-05-19T05:38:47.483Z,7.93
2023-05-19T05:41:14.210Z,7.32
2023-05-19T05:43:40.909Z,8.00
2023-05-19T05:46:07.677Z,6.90
2023-05-19T05:48:34.911Z,6.88
2023-05-19T05:51:01.829Z,5.90
2023-05-19T05:53:32.170Z,5.38
2023-05-19T05:55:59.248Z,5.72
2023-05-19T05:58:25.930Z,9.10
2023-05-19T06:00:53.619Z,5.55
2023-05-19T06:03:24.452Z,4.80
2023-05-19T06:05:51.678Z,5.15
2023-05-19T06:08:18.574Z,6.57
2023-05-19T06:10:47.251Z,7.90
2023-05-19T06:13:17.896Z,5.45
2023-05-19T06:15:44.690Z,7.13
2023-05-19T06:18:11.425Z,8.25
2023-05-19T06:20:38.228Z,5.40
2023-05-19T06:23:04.917Z,5.40
2023-05-19T06:25:32.130Z,7.05
2023-05-19T06:27:59.010Z,5.30
2023-05-19T06:30:25.791Z,6.00
2023-05-19T06:32:52.521Z,8.60
2023-05-19T06:35:19.289Z,5.38
2023-05-19T06:37:46.075Z,5.93
2023-05-19T06:40:13.209Z,7.45
2023-05-19T06:42:39.869Z,8.43
2023-05-19T06:45:07.160Z,6.43
2023-05-19T06:47:33.825Z,7.15
2023-05-19T06:50:00.557Z,5.93
2023-05-19T06:52:27.272Z,6.35
2023-05-19T06:54:54.163Z,5.22
2023-05-19T06:57:23.546Z,5.47
2023-05-19T06:59:50.208Z,4.85
2023-05-19T07:02:17.025Z,6.43
2023-05-19T07:04:43.877Z,5.13
2023-05-19T07:07:10.719Z,5.72
2023-05-19T07:09:37.445Z,6.25
2023-05-19T07:12:05.249Z,9.02
2023-05-19T07:14:36.538Z,5.53
2023-05-19T07:17:03.274Z,6.88
2023-05-19T07:19:30.058Z,7.57
2023-05-19T07:21:57.276Z,6.35
2023-05-19T07:24:24.047Z,4.93
2023-05-19T07:26:50.996Z,7.50
2023-05-19T07:29:17.670Z,6.90
2023-05-19T07:31:44.403Z,7.25
2023-05-19T07:34:11.083Z,6.53
2023-05-19T07:36:37.887Z,7.30
2023-05-19T07:39:04.802Z,6.95
2023-05-19T07:41:31.588Z,4.90
2023-05-19T07:43:58.426Z,8.23
2023-05-19T07:46:25.147Z,7.18
2023-05-19T07:48:51.785Z,6.78
2023-05-19T07:51:19.535Z,8.93
2023-05-19T07:53:47.222Z,6.05
2023-05-19T07:56:14.080Z,6.15
2023-05-19T07:58:40.955Z,8.55
2023-05-19T08:01:07.649Z,8.25
2023-05-19T08:03:34.823Z,8.52
2023-05-19T08:06:01.739Z,10.60
2023-05-19T08:08:28.422Z,6.30
2023-05-19T08:10:55.158Z,6.60
2023-05-19T08:13:21.990Z,8.65
2023-05-19T08:15:48.760Z,7.07
2023-05-19T08:18:15.786Z,5.70
2023-05-19T08:20:42.528Z,8.23
2023-05-19T08:23:09.223Z,6.30
2023-05-19T08:25:35.968Z,6.50
2023-05-19T08:28:03.892Z,6.57
2023-05-19T08:30:30.642Z,6.57
2023-05-19T08:32:58.179Z,6.68
2023-05-19T08:35:25.006Z,8.82
2023-05-19T08:37:52.694Z,7.40
2023-05-19T08:40:20.418Z,7.25
2023-05-19T08:42:51.194Z,6.32
2023-05-19T08:45:18.019Z,5.97
2023-05-19T08:47:46.927Z,5.55
2023-05-19T08:50:17.785Z,5.85
2023-05-19T08:52:57.867Z,5.05
2023-05-19T08:55:53.369Z,7.05
2023-05-19T08:58:22.009Z,11.27
2023-05-19T09:00:49.521Z,6.15
2023-05-19T09:03:23.686Z,6.43
2023-05-19T09:05:51.396Z,5.05
2023-05-19T09:08:18.516Z,6.60
2023-05-19T09:10:45.563Z,10.90
2023-05-19T09:13:12.255Z,6.90
2023-05-19T09:15:39.969Z,12.25
2023-05-19T09:18:12.205Z,9.85
2023-05-19T09:20:44.787Z,5.10
2023-05-19T09:23:16.393Z,5.35
2023-05-19T09:25:51.010Z,7.07
2023-05-19T09:28:28.144Z,8.48
2023-05-19T09:31:06.197Z,9.18
2023-05-19T09:33:35.051Z,6.72
2023-05-19T09:36:02.037Z,7.38
2023-05-19T09:38:28.823Z,10.45
2023-05-19T09:41:00.059Z,6.07
2023-05-19T09:43:30.981Z,6.63
2023-05-19T09:46:03.621Z,7.15
2023-05-19T09:48:34.780Z,7.07
2023-05-19T09:51:02.587Z,8.30
2023-05-19T09:53:32.729Z,7.55
2023-05-19T09:56:02.035Z,6.57
2023-05-19T09:58:37.480Z,5.72
2023-05-19T10:01:05.586Z,6.95
2023-05-19T10:03:33.923Z,6.63
2023-05-19T10:06:05.503Z,9.38
2023-05-19T10:08:34.324Z,6.85
2023-05-19T10:11:01.846Z,8.00
2023-05-19T10:13:31.075Z,7.45
2023-05-19T10:15:59.978Z,7.30
2023-05-19T10:18:30.258Z,6.78
2023-05-19T10:20:58.186Z,6.00
2023-05-19T10:23:26.142Z,10.77
2023-05-19T10:25:57.700Z,9.23
2023-05-19T10:28:30.483Z,6.88
2023-05-19T10:31:00.680Z,6.03
2023-05-19T10:33:53.985Z,9.02
2023-05-19T10:36:32.648Z,6.72
2023-05-19T10:39:06.720Z,9.37
2023-05-19T10:42:07.324Z,7.15
2023-05-19T10:44:57.536Z,8.75
2023-05-19T10:47:25.471Z,6.13
2023-05-19T10:49:55.877Z,5.53
2023-05-19T10:52:29.725Z,5.65
2023-05-19T10:54:56.482Z,7.07
2023-05-19T10:57:28.151Z,8.82
2023-05-19T10:59:57.586Z,8.35
2023-05-19T11:02:43.416Z,7.85
2023-05-19T11:05:14.864Z,8.05
2023-05-19T11:07:56.188Z,7.38
2023-05-19T11:10:23.960Z,8.40
2023-05-19T11:15:19.751Z,7.00
2023-05-19T11:17:49.007Z,6.03
2023-05-19T11:20:29.918Z,10.30
2023-05-19T11:23:18.976Z,8.65
2023-05-19T11:25:51.293Z,7.90
2023-05-19T11:28:20.122Z,12.05
2023-05-19T11:30:52.038Z,9.70
2023-05-19T11:33:20.685Z,5.47
2023-05-19T11:35:49.617Z,11.38
2023-05-19T11:38:18.764Z,6.95
2023-05-19T11:40:47.230Z,7.63
2023-05-19T11:43:13.940Z,8.07
2023-05-19T11:45:40.733Z,6.30
2023-05-19T11:48:15.692Z,6.32
2023-05-19T11:50:43.936Z,10.32
2023-05-19T11:53:14.277Z,6.88
2023-05-19T11:55:50.022Z,6.13
2023-05-19T11:58:19.490Z,10.60
2023-05-19T12:00:47.941Z,9.60
2023-05-19T12:03:15.279Z,10.27
2023-05-19T12:05:48.329Z,9.10
2023-05-19T12:08:18.553Z,8.30
2023-05-19T12:10:50.100Z,6.03
2023-05-19T12:13:16.981Z,5.65
2023-05-19T12:15:43.943Z,5.20
2023-05-19T12:18:10.818Z,11.30
2023-05-19T12:20:37.913Z,5.97
2023-05-19T12:23:05.233Z,8.02
2023-05-19T12:25:32.749Z,7.68
2023-05-19T12:28:03.061Z,7.47
2023-05-19T12:30:34.357Z,5.82
2023-05-19T12:33:02.823Z,7.68
2023-05-19T12:35:34.534Z,7.53
2023-05-19T12:38:05.582Z,9.32
2023-05-19T12:40:35.057Z,7.20
2023-05-19T12:43:02.479Z,10.10
2023-05-19T12:45:33.709Z,9.80
2023-05-19T12:48:03.632Z,7.15
2023-05-19T12:50:34.392Z,5.68
2023-05-19T12:53:01.509Z,7.90
2023-05-19T12:55:30.418Z,16.60
2023-05-19T12:57:58.461Z,6.95
2023-05-19T13:00:28.700Z,7.50
2023-05-19T13:03:10.002Z,6.53
2023-05-19T13:05:43.783Z,5.63
2023-05-19T13:08:15.227Z,8.38
2023-05-19T13:10:45.985Z,8.00
2023-05-19T13:13:13.425Z,5.88
2023-05-19T13:15:51.122Z,5.80
2023-05-19T13:18:18.158Z,7.65
2023-05-19T13:20:47.432Z,6.93
2023-05-19T13:23:14.738Z,6.90
2023-05-19T13:25:42.164Z,7.10
2023-05-19T13:28:09.700Z,9.18
2023-05-19T13:30:45.038Z,13.25
2023-05-19T13:33:12.060Z,6.63
2023-05-19T13:35:39.159Z,8.10
2023-05-19T13:38:10.854Z,8.32
2023-05-19T13:40:39.657Z,6.43
2023-05-19T13:43:07.463Z,8.80
2023-05-19T13:45:34.221Z,7.25
2023-05-19T13:48:01.121Z,9.43
2023-05-19T13:50:28.011Z,5.13
2023-05-19T13:52:54.807Z,6.72
2023-05-19T13:55:22.526Z,8.35
2023-05-19T13:57:49.386Z,7.30
2023-05-19T14:00:17.732Z,11.75
2023-05-19T14:02:44.523Z,6.13
2023-05-19T14:05:11.483Z,9.20
2023-05-19T14:07:38.457Z,6.72
2023-05-19T14:10:08.934Z,6.85
2023-05-19T14:12:49.514Z,6.80
2023-05-19T14:15:23.044Z,11.70
2023-05-19T14:17:49.771Z,8.63
2023-05-19T14:20:16.486Z,11.27
2023-05-19T14:22:43.194Z,8.02
2023-05-19T14:25:10.124Z,7.90
2023-05-19T14:27:37.006Z,7.78
2023-05-19T14:30:04.003Z,8.57
2023-05-19T14:32:30.831Z,5.78
2023-05-19T14:34:57.535Z,7.45
2023-05-19T14:37:29.612Z,8.25
2023-05-19T14:39:57.843Z,8.80
2023-05-19T14:42:25.332Z,5.60
2023-05-19T14:44:52.002Z,8.85
2023-05-19T14:47:18.918Z,9.10
2023-05-19T14:49:45.685Z,8.32
2023-05-19T14:52:12.382Z,7.00
2023-05-19T14:54:39.289Z,8.10
2023-05-19T14:57:07.296Z,11.90
2023-05-19T14:59:37.928Z,7.28
2023-05-19T15:02:07.901Z,7.10
2023-05-19T15:04:34.551Z,7.80
2023-05-19T15:09:36.533Z,5.53
2023-05-19T15:12:03.376Z,8.55
2023-05-19T15:14:31.433Z,7.68
2023-05-19T15:16:58.788Z,10.55
2023-05-19T15:19:26.185Z,6.18
2023-05-19T15:21:53.107Z,9.38
2023-05-19T15:24:19.859Z,7.28
2023-05-19T15:26:47.301Z,9.75
2023-05-19T15:29:14.152Z,8.10
2023-05-19T15:31:41.469Z,7.95
2023-05-19T15:34:08.532Z,7.45
2023-05-19T15:36:35.624Z,8.73
2023-05-19T15:39:03.663Z,6.97
2023-05-19T15:41:30.831Z,10.13
2023-05-19T15:44:00.201Z,10.00
2023-05-19T15:46:27.361Z,6.40
2023-05-19T15:48:54.064Z,7.65
2023-05-19T15:51:20.960Z,5.72
2023-05-19T15:53:48.955Z,6.20
2023-05-19T15:56:15.902Z,10.38
2023-05-19T15:58:42.695Z,7.78
2023-05-19T16:01:09.778Z,9.07
2023-05-19T16:03:36.497Z,9.48
2023-05-19T16:06:03.537Z,12.23
2023-05-19T16:08:30.369Z,6.95
2023-05-19T16:10:57.283Z,7.97
2023-05-19T16:13:24.097Z,9.88
2023-05-19T16:15:51.925Z,7.05
2023-05-19T16:18:18.869Z,9.95
2023-05-19T16:20:45.638Z,13.23
2023-05-19T16:23:12.253Z,7.93
2023-05-19T16:25:38.928Z,7.03
2023-05-19T16:28:05.944Z,12.48
2023-05-19T16:30:32.949Z,10.02
2023-05-19T16:32:59.926Z,8.20
2023-05-19T16:35:29.405Z,7.60
2023-05-19T16:37:56.267Z,8.70
2023-05-19T16:40:22.935Z,8.73
2023-05-19T16:42:49.858Z,7.00
2023-05-19T16:45:17.551Z,6.35
2023-05-19T16:47:44.785Z,11.05
2023-05-19T16:50:13.926Z,13.63
2023-05-19T16:52:40.850Z,9.82
2023-05-19T16:55:07.921Z,11.93
2023-05-19T16:57:35.184Z,9.25
2023-05-19T17:00:02.050Z,7.72
2023-05-19T17:02:28.856Z,9.27
2023-05-19T17:04:58.796Z,10.95
2023-05-19T17:07:25.479Z,13.85
2023-05-19T17:09:54.494Z,8.50
2023-05-19T17:12:22.648Z,8.88
2023-05-19T17:14:50.436Z,11.18
2023-05-19T17:17:17.182Z,9.20
2023-05-19T17:19:43.892Z,11.40
2023-05-19T17:22:11.357Z,10.35
2023-05-19T17:24:38.024Z,11.73
2023-05-19T17:27:06.093Z,9.38
2023-05-19T17:29:33.773Z,10.05
2023-05-19T17:32:03.517Z,13.35
2023-05-19T17:34:30.744Z,11.93
2023-05-19T17:36:57.430Z,12.38
2023-05-19T17:39:24.851Z,10.60
2023-05-19T17:41:51.647Z,10.85
2023-05-19T17:44:18.429Z,9.55
2023-05-19T17:46:48.081Z,8.70
2023-05-19T17:49:15.411Z,13.50
2023-05-19T17:51:42.527Z,15.95
2023-05-19T17:54:09.410Z,10.32
2023-05-19T17:56:40.947Z,9.32
2023-05-19T17:59:07.835Z,17.92
2023-05-19T18:01:36.033Z,18.42
2023-05-19T18:04:03.880Z,11.10
2023-05-19T18:06:33.330Z,13.57
2023-05-19T18:09:03.284Z,9.95
2023-05-19T18:11:29.981Z,11.45
2023-05-19T18:13:57.378Z,12.07
2023-05-19T18:16:24.133Z,13.68
2023-05-19T18:18:51.948Z,11.05
2023-05-19T18:21:19.305Z,12.32
2023-05-19T18:23:46.702Z,14.57
2023-05-19T18:26:13.712Z,15.93
2023-05-19T18:28:41.542Z,10.48
2023-05-19T18:31:17.430Z,13.90
2023-05-19T18:33:47.672Z,11.15
2023-05-19T18:36:16.545Z,9.63
2023-05-19T18:38:43.371Z,11.53
2023-05-19T18:41:10.191Z,16.75
2023-05-19T18:43:36.879Z,13.50
2023-05-19T18:46:03.599Z,16.30
2023-05-19T18:48:30.450Z,17.30
2023-05-19T18:50:57.224Z,13.20
2023-05-19T18:53:24.027Z,11.88
2023-05-19T18:55:53.199Z,14.70
2023-05-19T18:58:19.859Z,16.98
2023-05-19T19:00:46.904Z,11.05
2023-05-19T19:03:13.755Z,17.95
2023-05-19T19:05:40.499Z,14.35
2023-05-19T19:08:07.215Z,19.90
2023-05-19T19:10:40.928Z,19.80
2023-05-19T19:13:07.697Z,16.80
2023-05-19T19:15:34.349Z,17.25
2023-05-19T19:18:01.117Z,16.35
2023-05-19T19:20:27.882Z,16.60
2023-05-19T19:22:54.613Z,16.20
2023-05-19T19:25:23.266Z,18.33
2023-05-19T19:27:50.625Z,16.85
2023-05-19T19:30:17.473Z,14.93
2023-05-19T19:32:44.185Z,18.83
2023-05-19T19:35:11.276Z,17.60
2023-05-19T19:37:40.226Z,16.38
2023-05-19T19:40:07.392Z,14.75
2023-05-19T19:42:34.331Z,22.30
2023-05-19T19:45:01.064Z,15.43
2023-05-19T19:47:27.734Z,16.65
2023-05-19T19:49:54.492Z,18.80
2023-05-19T19:52:21.135Z,19.15
2023-05-19T19:54:48.258Z,16.70
2023-05-19T19:57:17.325Z,15.65
2023-05-19T19:59:44.020Z,16.35
2023-05-19T20:02:10.796Z,15.20
2023-05-19T20:04:37.897Z,19.02
2023-05-19T20:07:04.972Z,24.08
2023-05-19T20:09:31.584Z,16.70
2023-05-19T20:11:58.272Z,23.13
2023-05-19T20:14:24.966Z,24.67
2023-05-19T20:16:51.647Z,27.40
2023-05-19T20:19:18.537Z,16.88
2023-05-19T20:21:45.209Z,14.93
2023-05-19T20:24:11.913Z,14.73
2023-05-19T20:26:38.716Z,14.60
2023-05-19T20:29:05.379Z,19.10
2023-05-19T20:31:32.057Z,23.42
2023-05-19T20:33:59.472Z,23.00
2023-05-19T20:36:28.082Z,17.52
2023-05-19T20:38:54.850Z,25.33
2023-05-19T20:41:23.647Z,15.88
2023-05-19T20:43:50.414Z,19.05
2023-05-19T20:46:17.356Z,17.85
2023-05-19T20:48:44.063Z,14.27
2023-05-19T20:51:13.053Z,18.23
2023-05-19T20:53:39.798Z,22.13
2023-05-19T20:56:07.420Z,18.15
2023-05-19T20:58:34.142Z,18.00
2023-05-19T21:01:00.927Z,14.63
2023-05-19T21:03:28.592Z,18.30
2023-05-19T21:05:55.633Z,19.27
2023-05-19T21:08:23.088Z,13.80
2023-05-19T21:10:49.934Z,14.45
2023-05-19T21:13:17.874Z,16.48
2023-05-19T21:15:44.729Z,18.20
2023-05-19T21:18:12.245Z,16.00
2023-05-19T21:20:39.568Z,15.05
2023-05-19T21:23:06.306Z,18.85
2023-05-19T21:25:33.097Z,21.10
2023-05-19T21:27:59.928Z,19.83
2023-05-19T21:30:26.640Z,18.20
2023-05-19T21:32:53.406Z,16.45
2023-05-19T21:35:20.141Z,16.58
2023-05-19T21:37:46.830Z,16.58
2023-05-19T21:40:13.603Z,15.13
2023-05-19T21:42:40.345Z,17.98
2023-05-19T21:45:07.599Z,17.67
2023-05-19T21:47:34.308Z,17.23
2023-05-19T21:50:00.960Z,17.65
2023-05-19T21:52:27.621Z,15.70
2023-05-19T21:54:54.343Z,16.80
2023-05-19T21:57:21.079Z,15.32
2023-05-19T21:59:48.964Z,18.27
2023-05-19T22:02:17.061Z,18.33
2023-05-19T22:04:44.794Z,15.55
2023-05-19T22:07:11.430Z,16.55
2023-05-19T22:09:38.193Z,13.45
2023-05-19T22:12:05.211Z,19.60
2023-05-19T22:14:31.809Z,14.65
2023-05-19T22:16:58.487Z,19.05
2023-05-19T22:19:25.302Z,17.77
2023-05-19T22:22:01.595Z,26.13
2023-05-19T22:24:32.849Z,16.48
2023-05-19T22:26:59.496Z,16.15
2023-05-19T22:29:27.144Z,18.60
2023-05-19T22:31:53.783Z,15.02
2023-05-19T22:34:20.636Z,15.75
2023-05-19T22:36:47.310Z,17.17
2023-05-19T22:39:14.000Z,18.15
2023-05-19T22:41:40.942Z,20.65
2023-05-19T22:44:15.023Z,17.90
2023-05-19T22:46:44.257Z,18.77
2023-05-19T22:49:11.072Z,19.50
2023-05-19T22:51:39.300Z,15.07
2023-05-19T22:54:06.951Z,20.15
2023-05-19T22:56:34.090Z,17.50
2023-05-19T22:59:00.726Z,20.20
2023-05-19T23:01:27.540Z,20.48
2023-05-19T23:03:54.295Z,16.88
2023-05-19T23:06:22.073Z,15.13
2023-05-19T23:08:58.555Z,15.80
2023-05-19T23:11:25.825Z,14.95
2023-05-19T23:13:52.560Z,19.15
2023-05-19T23:16:19.370Z,17.85
2023-05-19T23:18:46.207Z,18.55
2023-05-19T23:21:13.308Z,17.25
2023-05-19T23:23:40.091Z,19.67
2023-05-19T23:26:06.800Z,17.58
2023-05-19T23:28:34.699Z,19.35
2023-05-19T23:31:01.688Z,22.83
2023-05-19T23:33:28.385Z,21.67
2023-05-19T23:35:55.023Z,25.33
2023-05-19T23:38:21.717Z,19.92
2023-05-19T23:40:48.422Z,19.70
2023-05-19T23:43:15.126Z,24.55
2023-05-19T23:45:41.837Z,20.95
2023-05-19T23:48:08.545Z,20.42
2023-05-19T23:50:35.292Z,17.17
2023-05-19T23:53:02.021Z,21.02
2023-05-19T23:55:28.752Z,16.60
2023-05-19T23:57:55.407Z,19.42
